sensor_id;sensor_type;location;lat;lon;timestamp;temperature;humidity
18229;DHT22;9239;50.932;3.142;2023-04-06T00:00:32;8.00;99.90
18229;DHT22;9239;50.932;3.142;2023-04-06T00:02:59;8.00;99.90
18229;DHT22;9239;50.932;3.142;2023-04-06T00:05:27;8.10;99.90
18229;DHT22;9239;50.932;3.142;2023-04-06T00:07:56;8.10;99.90
18229;DHT22;9239;50.932;3.142;2023-04-06T00:10:23;8.10;99.90
18229;DHT22;9239;50.932;3.142;2023-04-06T00:12:50;8.10;99.90
18229;DHT22;9239;50.932;3.142;2023-04-06T00:15:17;8.10;99.90
18229;DHT22;9239;50.932;3.142;2023-04-06T00:17:44;8.10;99.90
18229;DHT22;9239;50.932;3.142;2023-04-06T00:20:11;8.10;99.90
18229;DHT22;9239;50.932;3.142;2023-04-06T00:22:40;8.20;99.90
18229;DHT22;9239;50.932;3.142;2023-04-06T00:25:08;8.10;99.90
18229;DHT22;9239;50.932;3.142;2023-04-06T00:27:35;8.10;99.90
18229;DHT22;9239;50.932;3.142;2023-04-06T00:30:03;8.10;99.90
18229;DHT22;9239;50.932;3.142;2023-04-06T00:32:30;8.10;99.90
18229;DHT22;9239;50.932;3.142;2023-04-06T00:34:58;8.10;99.90
18229;DHT22;9239;50.932;3.142;2023-04-06T00:37:25;8.10;99.90
18229;DHT22;9239;50.932;3.142;2023-04-06T00:39:54;8.00;99.90
18229;DHT22;9239;50.932;3.142;2023-04-06T00:42:21;8.00;99.90
18229;DHT22;9239;50.932;3.142;2023-04-06T00:44:52;8.00;99.90
18229;DHT22;9239;50.932;3.142;2023-04-06T00:47:19;7.90;99.90
18229;DHT22;9239;50.932;3.142;2023-04-06T00:49:46;7.90;99.90
18229;DHT22;9239;50.932;3.142;2023-04-06T00:52:12;7.90;99.90
18229;DHT22;9239;50.932;3.142;2023-04-06T00:54:41;7.90;99.90
18229;DHT22;9239;50.932;3.142;2023-04-06T00:57:10;8.00;99.90
18229;DHT22;9239;50.932;3.142;2023-04-06T00:59:37;8.00;99.90
18229;DHT22;9239;50.932;3.142;2023-04-06T01:02:04;8.00;99.90
18229;DHT22;9239;50.932;3.142;2023-04-06T01:04:32;8.00;99.90
18229;DHT22;9239;50.932;3.142;2023-04-06T01:06:59;8.00;99.90
18229;DHT22;9239;50.932;3.142;2023-04-06T01:09:27;8.00;99.90
18229;DHT22;9239;50.932;3.142;2023-04-06T01:11:55;7.90;99.90
18229;DHT22;9239;50.932;3.142;2023-04-06T01:14:23;8.00;99.90
18229;DHT22;9239;50.932;3.142;2023-04-06T01:16:51;8.00;99.90
18229;DHT22;9239;50.932;3.142;2023-04-06T01:19:18;8.00;99.90
18229;DHT22;9239;50.932;3.142;2023-04-06T01:21:46;8.00;99.90
18229;DHT22;9239;50.932;3.142;2023-04-06T01:24:16;8.00;99.90
18229;DHT22;9239;50.932;3.142;2023-04-06T01:26:43;7.90;99.90
18229;DHT22;9239;50.932;3.142;2023-04-06T01:29:10;8.00;99.90
18229;DHT22;9239;50.932;3.142;2023-04-06T01:31:37;8.00;99.90
18229;DHT22;9239;50.932;3.142;2023-04-06T01:34:04;8.00;99.90
18229;DHT22;9239;50.932;3.142;2023-04-06T01:36:31;7.90;99.90
18229;DHT22;9239;50.932;3.142;2023-04-06T01:38:58;8.00;99.90
18229;DHT22;9239;50.932;3.142;2023-04-06T01:41:27;8.00;99.90
18229;DHT22;9239;50.932;3.142;2023-04-06T01:43:54;8.00;99.90
18229;DHT22;9239;50.932;3.142;2023-04-06T01:46:21;8.00;99.90
18229;DHT22;9239;50.932;3.142;2023-04-06T01:48:48;7.90;99.90
18229;DHT22;9239;50.932;3.142;2023-04-06T01:51:15;7.90;99.90
18229;DHT22;9239;50.932;3.142;2023-04-06T01:53:42;7.90;99.90
18229;DHT22;9239;50.932;3.142;2023-04-06T01:56:09;7.90;99.90
18229;DHT22;9239;50.932;3.142;2023-04-06T01:58:37;7.90;99.90
18229;DHT22;9239;50.932;3.142;2023-04-06T02:01:04;7.90;99.90
18229;DHT22;9239;50.932;3.142;2023-04-06T02:03:31;7.80;99.90
18229;DHT22;9239;50.932;3.142;2023-04-06T02:05:58;7.80;99.90
18229;DHT22;9239;50.932;3.142;2023-04-06T02:08:25;7.80;99.90
18229;DHT22;9239;50.932;3.142;2023-04-06T02:10:52;7.80;99.90
18229;DHT22;9239;50.932;3.142;2023-04-06T02:13:19;7.80;99.90
18229;DHT22;9239;50.932;3.142;2023-04-06T02:15:47;7.70;99.90
18229;DHT22;9239;50.932;3.142;2023-04-06T02:18:14;7.70;99.90
18229;DHT22;9239;50.932;3.142;2023-04-06T02:20:43;7.70;99.90
18229;DHT22;9239;50.932;3.142;2023-04-06T02:23:10;7.70;99.90
18229;DHT22;9239;50.932;3.142;2023-04-06T02:25:37;7.80;99.90
18229;DHT22;9239;50.932;3.142;2023-04-06T02:28:04;7.70;99.90
18229;DHT22;9239;50.932;3.142;2023-04-06T02:30:31;7.80;99.90
18229;DHT22;9239;50.932;3.142;2023-04-06T02:32:59;7.70;99.90
18229;DHT22;9239;50.932;3.142;2023-04-06T02:35:28;7.60;99.90
18229;DHT22;9239;50.932;3.142;2023-04-06T02:37:55;7.70;99.90
18229;DHT22;9239;50.932;3.142;2023-04-06T02:40:22;7.70;99.90
18229;DHT22;9239;50.932;3.142;2023-04-06T02:42:49;7.60;99.90
18229;DHT22;9239;50.932;3.142;2023-04-06T02:45:16;7.60;99.90
18229;DHT22;9239;50.932;3.142;2023-04-06T02:47:43;7.70;99.90
18229;DHT22;9239;50.932;3.142;2023-04-06T02:50:11;7.80;99.90
18229;DHT22;9239;50.932;3.142;2023-04-06T02:52:38;7.80;99.90
18229;DHT22;9239;50.932;3.142;2023-04-06T02:55:06;7.90;99.90
18229;DHT22;9239;50.932;3.142;2023-04-06T02:57:33;7.80;99.90
18229;DHT22;9239;50.932;3.142;2023-04-06T03:00:00;7.80;99.90
18229;DHT22;9239;50.932;3.142;2023-04-06T03:02:27;7.80;99.90
18229;DHT22;9239;50.932;3.142;2023-04-06T03:04:55;7.90;99.90
18229;DHT22;9239;50.932;3.142;2023-04-06T03:07:23;7.80;99.90
18229;DHT22;9239;50.932;3.142;2023-04-06T03:09:50;7.90;99.90
18229;DHT22;9239;50.932;3.142;2023-04-06T03:12:17;7.80;99.90
18229;DHT22;9239;50.932;3.142;2023-04-06T03:14:44;7.80;99.90
18229;DHT22;9239;50.932;3.142;2023-04-06T03:17:11;7.90;99.90
18229;DHT22;9239;50.932;3.142;2023-04-06T03:19:38;7.80;99.90
18229;DHT22;9239;50.932;3.142;2023-04-06T03:22:04;7.80;99.90
18229;DHT22;9239;50.932;3.142;2023-04-06T03:24:33;7.80;99.90
18229;DHT22;9239;50.932;3.142;2023-04-06T03:27:00;7.80;99.90
18229;DHT22;9239;50.932;3.142;2023-04-06T03:29:27;7.80;99.90
18229;DHT22;9239;50.932;3.142;2023-04-06T03:31:54;7.80;99.90
18229;DHT22;9239;50.932;3.142;2023-04-06T03:34:21;7.80;99.90
18229;DHT22;9239;50.932;3.142;2023-04-06T03:36:48;7.90;99.90
18229;DHT22;9239;50.932;3.142;2023-04-06T03:39:15;7.90;99.90
18229;DHT22;9239;50.932;3.142;2023-04-06T03:41:43;7.90;99.90
18229;DHT22;9239;50.932;3.142;2023-04-06T03:44:10;8.00;99.90
18229;DHT22;9239;50.932;3.142;2023-04-06T03:46:37;8.00;99.90
18229;DHT22;9239;50.932;3.142;2023-04-06T03:49:05;8.00;99.90
18229;DHT22;9239;50.932;3.142;2023-04-06T03:51:32;8.10;99.90
18229;DHT22;9239;50.932;3.142;2023-04-06T03:53:59;8.10;99.90
18229;DHT22;9239;50.932;3.142;2023-04-06T03:56:26;8.00;99.90
18229;DHT22;9239;50.932;3.142;2023-04-06T03:58:54;8.00;99.90
18229;DHT22;9239;50.932;3.142;2023-04-06T04:01:21;8.00;99.90
18229;DHT22;9239;50.932;3.142;2023-04-06T04:03:48;7.90;99.90
18229;DHT22;9239;50.932;3.142;2023-04-06T04:06:15;7.80;99.90
18229;DHT22;9239;50.932;3.142;2023-04-06T04:08:42;7.80;99.90
18229;DHT22;9239;50.932;3.142;2023-04-06T04:11:09;7.70;99.90
18229;DHT22;9239;50.932;3.142;2023-04-06T04:13:36;7.70;99.90
18229;DHT22;9239;50.932;3.142;2023-04-06T04:16:05;7.70;99.90
18229;DHT22;9239;50.932;3.142;2023-04-06T04:18:32;7.70;99.90
18229;DHT22;9239;50.932;3.142;2023-04-06T04:20:58;7.70;99.90
18229;DHT22;9239;50.932;3.142;2023-04-06T04:23:25;7.60;99.90
18229;DHT22;9239;50.932;3.142;2023-04-06T04:25:52;7.60;99.90
18229;DHT22;9239;50.932;3.142;2023-04-06T04:28:19;7.60;99.90
18229;DHT22;9239;50.932;3.142;2023-04-06T04:30:46;7.60;99.90
18229;DHT22;9239;50.932;3.142;2023-04-06T04:33:15;7.50;99.90
18229;DHT22;9239;50.932;3.142;2023-04-06T04:35:42;7.50;99.90
18229;DHT22;9239;50.932;3.142;2023-04-06T04:38:09;7.50;99.90
18229;DHT22;9239;50.932;3.142;2023-04-06T04:40:35;7.40;99.90
18229;DHT22;9239;50.932;3.142;2023-04-06T04:43:02;7.40;99.90
18229;DHT22;9239;50.932;3.142;2023-04-06T04:45:29;7.40;99.90
18229;DHT22;9239;50.932;3.142;2023-04-06T04:47:56;7.40;99.90
18229;DHT22;9239;50.932;3.142;2023-04-06T04:50:25;7.40;99.90
18229;DHT22;9239;50.932;3.142;2023-04-06T04:52:52;7.40;99.90
18229;DHT22;9239;50.932;3.142;2023-04-06T04:55:19;7.40;99.90
18229;DHT22;9239;50.932;3.142;2023-04-06T04:57:46;7.40;99.90
18229;DHT22;9239;50.932;3.142;2023-04-06T05:00:13;7.40;99.90
18229;DHT22;9239;50.932;3.142;2023-04-06T05:02:41;7.40;99.90
18229;DHT22;9239;50.932;3.142;2023-04-06T05:05:08;7.40;99.90
18229;DHT22;9239;50.932;3.142;2023-04-06T05:07:37;7.40;99.90
18229;DHT22;9239;50.932;3.142;2023-04-06T05:10:04;7.30;99.90
18229;DHT22;9239;50.932;3.142;2023-04-06T05:12:31;7.30;99.90
18229;DHT22;9239;50.932;3.142;2023-04-06T05:14:58;7.30;99.90
18229;DHT22;9239;50.932;3.142;2023-04-06T05:17:25;7.30;99.90
18229;DHT22;9239;50.932;3.142;2023-04-06T05:19:52;7.30;99.90
18229;DHT22;9239;50.932;3.142;2023-04-06T05:22:19;7.30;99.90
18229;DHT22;9239;50.932;3.142;2023-04-06T05:24:48;7.30;99.90
18229;DHT22;9239;50.932;3.142;2023-04-06T05:27:15;7.30;99.90
18229;DHT22;9239;50.932;3.142;2023-04-06T05:29:42;7.30;99.90
18229;DHT22;9239;50.932;3.142;2023-04-06T05:32:09;7.30;99.90
18229;DHT22;9239;50.932;3.142;2023-04-06T05:34:37;7.30;99.90
18229;DHT22;9239;50.932;3.142;2023-04-06T05:37:04;7.30;99.90
18229;DHT22;9239;50.932;3.142;2023-04-06T05:39:31;7.30;99.90
18229;DHT22;9239;50.932;3.142;2023-04-06T05:42:03;7.30;99.90
18229;DHT22;9239;50.932;3.142;2023-04-06T05:44:30;7.30;99.90
18229;DHT22;9239;50.932;3.142;2023-04-06T05:46:57;7.30;99.90
18229;DHT22;9239;50.932;3.142;2023-04-06T05:49:24;7.30;99.90
18229;DHT22;9239;50.932;3.142;2023-04-06T05:51:51;7.30;99.90
18229;DHT22;9239;50.932;3.142;2023-04-06T05:54:18;7.30;99.90
18229;DHT22;9239;50.932;3.142;2023-04-06T05:56:45;7.30;99.90
18229;DHT22;9239;50.932;3.142;2023-04-06T05:59:13;7.30;99.90
18229;DHT22;9239;50.932;3.142;2023-04-06T06:01:40;7.30;99.90
18229;DHT22;9239;50.932;3.142;2023-04-06T06:04:07;7.40;99.90
18229;DHT22;9239;50.932;3.142;2023-04-06T06:06:35;7.40;99.90
18229;DHT22;9239;50.932;3.142;2023-04-06T06:09:02;7.40;99.90
18229;DHT22;9239;50.932;3.142;2023-04-06T06:11:29;7.40;99.90
18229;DHT22;9239;50.932;3.142;2023-04-06T06:13:56;7.40;99.90
18229;DHT22;9239;50.932;3.142;2023-04-06T06:16:25;7.40;99.90
18229;DHT22;9239;50.932;3.142;2023-04-06T06:18:52;7.40;99.90
18229;DHT22;9239;50.932;3.142;2023-04-06T06:21:18;7.50;99.90
18229;DHT22;9239;50.932;3.142;2023-04-06T06:23:45;7.50;99.90
18229;DHT22;9239;50.932;3.142;2023-04-06T06:26:14;7.50;99.90
18229;DHT22;9239;50.932;3.142;2023-04-06T06:28:41;7.60;99.90
18229;DHT22;9239;50.932;3.142;2023-04-06T06:31:08;7.50;99.90
18229;DHT22;9239;50.932;3.142;2023-04-06T06:33:37;7.60;99.90
18229;DHT22;9239;50.932;3.142;2023-04-06T06:36:04;7.50;99.90
18229;DHT22;9239;50.932;3.142;2023-04-06T06:38:31;7.50;99.90
18229;DHT22;9239;50.932;3.142;2023-04-06T06:40:58;7.60;99.90
18229;DHT22;9239;50.932;3.142;2023-04-06T06:43:25;7.60;99.90
18229;DHT22;9239;50.932;3.142;2023-04-06T06:45:52;7.60;99.90
18229;DHT22;9239;50.932;3.142;2023-04-06T06:48:19;7.60;99.90
18229;DHT22;9239;50.932;3.142;2023-04-06T06:50:48;7.60;99.90
18229;DHT22;9239;50.932;3.142;2023-04-06T06:53:15;7.60;99.90
18229;DHT22;9239;50.932;3.142;2023-04-06T06:55:42;7.60;99.90
18229;DHT22;9239;50.932;3.142;2023-04-06T06:58:10;7.70;99.90
18229;DHT22;9239;50.932;3.142;2023-04-06T07:00:37;7.70;99.90
18229;DHT22;9239;50.932;3.142;2023-04-06T07:03:04;7.70;99.90
18229;DHT22;9239;50.932;3.142;2023-04-06T07:05:31;7.70;99.90
18229;DHT22;9239;50.932;3.142;2023-04-06T07:07:59;7.70;99.90
18229;DHT22;9239;50.932;3.142;2023-04-06T07:10:26;7.70;99.90
18229;DHT22;9239;50.932;3.142;2023-04-06T07:12:53;7.70;99.90
18229;DHT22;9239;50.932;3.142;2023-04-06T07:15:20;7.60;99.90
18229;DHT22;9239;50.932;3.142;2023-04-06T07:17:47;7.60;99.90
18229;DHT22;9239;50.932;3.142;2023-04-06T07:20:14;7.60;99.90
18229;DHT22;9239;50.932;3.142;2023-04-06T07:22:43;7.70;99.90
18229;DHT22;9239;50.932;3.142;2023-04-06T07:25:11;7.70;99.90
18229;DHT22;9239;50.932;3.142;2023-04-06T07:27:38;7.70;99.90
18229;DHT22;9239;50.932;3.142;2023-04-06T07:30:06;7.70;99.90
18229;DHT22;9239;50.932;3.142;2023-04-06T07:32:33;7.70;99.90
18229;DHT22;9239;50.932;3.142;2023-04-06T07:35:01;7.70;99.90
18229;DHT22;9239;50.932;3.142;2023-04-06T07:37:28;7.70;99.90
18229;DHT22;9239;50.932;3.142;2023-04-06T07:39:55;7.70;99.90
18229;DHT22;9239;50.932;3.142;2023-04-06T07:42:23;7.70;99.90
18229;DHT22;9239;50.932;3.142;2023-04-06T07:44:50;7.80;99.90
18229;DHT22;9239;50.932;3.142;2023-04-06T07:47:17;7.80;99.90
18229;DHT22;9239;50.932;3.142;2023-04-06T07:49:44;7.70;99.90
18229;DHT22;9239;50.932;3.142;2023-04-06T07:52:11;7.70;99.90
18229;DHT22;9239;50.932;3.142;2023-04-06T07:54:40;7.80;99.90
18229;DHT22;9239;50.932;3.142;2023-04-06T07:57:07;7.80;99.90
18229;DHT22;9239;50.932;3.142;2023-04-06T07:59:35;7.80;99.90
18229;DHT22;9239;50.932;3.142;2023-04-06T08:02:02;7.80;99.90
18229;DHT22;9239;50.932;3.142;2023-04-06T08:04:29;7.70;99.90
18229;DHT22;9239;50.932;3.142;2023-04-06T08:06:56;7.70;99.90
18229;DHT22;9239;50.932;3.142;2023-04-06T08:09:23;7.70;99.90
18229;DHT22;9239;50.932;3.142;2023-04-06T08:11:50;7.80;99.90
18229;DHT22;9239;50.932;3.142;2023-04-06T08:14:16;7.80;99.90
18229;DHT22;9239;50.932;3.142;2023-04-06T08:16:45;7.80;99.90
18229;DHT22;9239;50.932;3.142;2023-04-06T08:19:12;7.80;99.90
18229;DHT22;9239;50.932;3.142;2023-04-06T08:21:39;7.80;99.90
18229;DHT22;9239;50.932;3.142;2023-04-06T08:24:06;7.80;99.90
18229;DHT22;9239;50.932;3.142;2023-04-06T08:26:33;7.80;99.90
18229;DHT22;9239;50.932;3.142;2023-04-06T08:29:01;7.90;99.90
18229;DHT22;9239;50.932;3.142;2023-04-06T08:31:29;7.90;99.90
18229;DHT22;9239;50.932;3.142;2023-04-06T08:33:58;7.90;99.90
18229;DHT22;9239;50.932;3.142;2023-04-06T08:36:25;8.00;99.90
18229;DHT22;9239;50.932;3.142;2023-04-06T08:38:52;8.00;99.90
18229;DHT22;9239;50.932;3.142;2023-04-06T08:41:19;8.00;99.90
18229;DHT22;9239;50.932;3.142;2023-04-06T08:43:48;8.00;99.90
18229;DHT22;9239;50.932;3.142;2023-04-06T08:46:15;8.00;99.90
18229;DHT22;9239;50.932;3.142;2023-04-06T08:48:43;8.10;99.90
18229;DHT22;9239;50.932;3.142;2023-04-06T08:51:11;8.10;99.90
18229;DHT22;9239;50.932;3.142;2023-04-06T08:53:39;8.20;99.90
18229;DHT22;9239;50.932;3.142;2023-04-06T08:56:07;8.20;99.90
18229;DHT22;9239;50.932;3.142;2023-04-06T08:58:39;8.20;99.90
18229;DHT22;9239;50.932;3.142;2023-04-06T09:01:09;8.20;99.90
18229;DHT22;9239;50.932;3.142;2023-04-06T09:03:39;8.20;99.90
18229;DHT22;9239;50.932;3.142;2023-04-06T09:06:07;8.20;99.90
18229;DHT22;9239;50.932;3.142;2023-04-06T09:08:38;8.20;99.90
18229;DHT22;9239;50.932;3.142;2023-04-06T09:11:05;8.20;99.90
18229;DHT22;9239;50.932;3.142;2023-04-06T09:13:43;8.20;99.90
18229;DHT22;9239;50.932;3.142;2023-04-06T09:16:10;8.20;99.90
18229;DHT22;9239;50.932;3.142;2023-04-06T09:18:37;8.20;99.90
18229;DHT22;9239;50.932;3.142;2023-04-06T09:21:05;8.20;99.90
18229;DHT22;9239;50.932;3.142;2023-04-06T09:23:32;8.30;99.90
18229;DHT22;9239;50.932;3.142;2023-04-06T09:26:09;8.30;99.90
18229;DHT22;9239;50.932;3.142;2023-04-06T09:28:46;8.30;99.90
18229;DHT22;9239;50.932;3.142;2023-04-06T09:31:14;8.30;99.90
18229;DHT22;9239;50.932;3.142;2023-04-06T09:33:43;8.30;99.90
18229;DHT22;9239;50.932;3.142;2023-04-06T09:36:11;8.30;99.90
18229;DHT22;9239;50.932;3.142;2023-04-06T09:38:51;8.30;99.90
18229;DHT22;9239;50.932;3.142;2023-04-06T09:41:26;8.30;99.90
18229;DHT22;9239;50.932;3.142;2023-04-06T09:44:02;8.30;99.90
18229;DHT22;9239;50.932;3.142;2023-04-06T09:46:31;8.40;99.90
18229;DHT22;9239;50.932;3.142;2023-04-06T09:49:00;8.40;99.90
18229;DHT22;9239;50.932;3.142;2023-04-06T09:51:30;8.40;99.90
18229;DHT22;9239;50.932;3.142;2023-04-06T09:53:58;8.40;99.90
18229;DHT22;9239;50.932;3.142;2023-04-06T09:56:33;8.40;99.90
18229;DHT22;9239;50.932;3.142;2023-04-06T09:59:05;8.40;99.90
18229;DHT22;9239;50.932;3.142;2023-04-06T10:01:34;8.40;99.90
18229;DHT22;9239;50.932;3.142;2023-04-06T10:04:19;8.40;99.90
18229;DHT22;9239;50.932;3.142;2023-04-06T10:06:48;8.40;99.90
18229;DHT22;9239;50.932;3.142;2023-04-06T10:09:18;8.50;99.90
18229;DHT22;9239;50.932;3.142;2023-04-06T10:11:49;8.50;99.90
18229;DHT22;9239;50.932;3.142;2023-04-06T10:14:16;8.50;99.90
18229;DHT22;9239;50.932;3.142;2023-04-06T10:16:43;8.50;99.90
18229;DHT22;9239;50.932;3.142;2023-04-06T10:19:16;8.50;99.90
18229;DHT22;9239;50.932;3.142;2023-04-06T10:21:45;8.50;99.90
18229;DHT22;9239;50.932;3.142;2023-04-06T10:24:14;8.50;99.90
18229;DHT22;9239;50.932;3.142;2023-04-06T10:26:42;8.50;99.90
18229;DHT22;9239;50.932;3.142;2023-04-06T10:29:11;8.60;99.90
18229;DHT22;9239;50.932;3.142;2023-04-06T10:31:42;8.60;99.90
18229;DHT22;9239;50.932;3.142;2023-04-06T10:34:09;8.60;99.90
18229;DHT22;9239;50.932;3.142;2023-04-06T10:36:37;8.70;99.90
18229;DHT22;9239;50.932;3.142;2023-04-06T10:39:05;8.70;99.90
18229;DHT22;9239;50.932;3.142;2023-04-06T10:41:33;8.70;99.90
18229;DHT22;9239;50.932;3.142;2023-04-06T10:44:01;8.80;99.90
18229;DHT22;9239;50.932;3.142;2023-04-06T10:46:31;8.80;99.90
18229;DHT22;9239;50.932;3.142;2023-04-06T10:49:08;8.90;99.90
18229;DHT22;9239;50.932;3.142;2023-04-06T10:51:38;8.90;99.90
18229;DHT22;9239;50.932;3.142;2023-04-06T10:54:05;8.90;99.90
18229;DHT22;9239;50.932;3.142;2023-04-06T10:56:36;8.90;99.90
18229;DHT22;9239;50.932;3.142;2023-04-06T10:59:06;8.90;99.90
18229;DHT22;9239;50.932;3.142;2023-04-06T11:01:34;9.00;99.90
18229;DHT22;9239;50.932;3.142;2023-04-06T11:04:01;9.00;99.90
18229;DHT22;9239;50.932;3.142;2023-04-06T11:06:30;9.10;99.90
18229;DHT22;9239;50.932;3.142;2023-04-06T11:08:58;9.10;99.90
18229;DHT22;9239;50.932;3.142;2023-04-06T11:11:26;9.10;99.90
18229;DHT22;9239;50.932;3.142;2023-04-06T11:13:54;9.20;99.90
18229;DHT22;9239;50.932;3.142;2023-04-06T11:16:23;9.10;99.90
18229;DHT22;9239;50.932;3.142;2023-04-06T11:18:56;9.20;99.90
18229;DHT22;9239;50.932;3.142;2023-04-06T11:21:34;9.20;99.90
18229;DHT22;9239;50.932;3.142;2023-04-06T11:24:06;9.30;99.90
18229;DHT22;9239;50.932;3.142;2023-04-06T11:26:37;9.40;99.90
18229;DHT22;9239;50.932;3.142;2023-04-06T11:29:05;9.40;99.90
18229;DHT22;9239;50.932;3.142;2023-04-06T11:31:37;9.40;99.90
18229;DHT22;9239;50.932;3.142;2023-04-06T11:34:10;9.50;99.90
18229;DHT22;9239;50.932;3.142;2023-04-06T11:36:40;9.50;99.90
18229;DHT22;9239;50.932;3.142;2023-04-06T11:39:08;9.50;99.90
18229;DHT22;9239;50.932;3.142;2023-04-06T11:41:35;9.50;99.90
18229;DHT22;9239;50.932;3.142;2023-04-06T11:44:03;9.50;99.90
18229;DHT22;9239;50.932;3.142;2023-04-06T11:46:30;9.60;99.90
18229;DHT22;9239;50.932;3.142;2023-04-06T11:48:58;9.60;99.90
18229;DHT22;9239;50.932;3.142;2023-04-06T11:51:27;9.70;99.90
18229;DHT22;9239;50.932;3.142;2023-04-06T11:53:54;9.80;99.90
18229;DHT22;9239;50.932;3.142;2023-04-06T11:56:26;9.80;99.90
18229;DHT22;9239;50.932;3.142;2023-04-06T11:58:55;9.90;99.90
18229;DHT22;9239;50.932;3.142;2023-04-06T12:01:23;9.90;99.90
18229;DHT22;9239;50.932;3.142;2023-04-06T12:03:50;9.90;99.90
18229;DHT22;9239;50.932;3.142;2023-04-06T12:06:17;10.00;99.90
18229;DHT22;9239;50.932;3.142;2023-04-06T12:08:46;10.00;99.90
18229;DHT22;9239;50.932;3.142;2023-04-06T12:11:13;10.00;99.90
18229;DHT22;9239;50.932;3.142;2023-04-06T12:13:40;10.00;99.90
18229;DHT22;9239;50.932;3.142;2023-04-06T12:16:07;10.10;99.90
18229;DHT22;9239;50.932;3.142;2023-04-06T12:18:33;10.20;99.90
18229;DHT22;9239;50.932;3.142;2023-04-06T12:21:01;10.30;99.90
18229;DHT22;9239;50.932;3.142;2023-04-06T12:23:27;10.30;99.90
18229;DHT22;9239;50.932;3.142;2023-04-06T12:25:56;10.30;99.90
18229;DHT22;9239;50.932;3.142;2023-04-06T12:28:23;10.40;99.90
18229;DHT22;9239;50.932;3.142;2023-04-06T12:30:52;10.40;99.90
18229;DHT22;9239;50.932;3.142;2023-04-06T12:33:19;10.40;99.90
18229;DHT22;9239;50.932;3.142;2023-04-06T12:35:46;10.40;99.90
18229;DHT22;9239;50.932;3.142;2023-04-06T12:38:13;10.40;99.90
18229;DHT22;9239;50.932;3.142;2023-04-06T12:40:40;10.40;99.90
18229;DHT22;9239;50.932;3.142;2023-04-06T12:43:08;10.50;99.90
18229;DHT22;9239;50.932;3.142;2023-04-06T12:45:36;10.60;99.90
18229;DHT22;9239;50.932;3.142;2023-04-06T12:48:03;10.60;99.90
18229;DHT22;9239;50.932;3.142;2023-04-06T12:50:30;10.70;99.90
18229;DHT22;9239;50.932;3.142;2023-04-06T12:52:57;10.70;99.90
18229;DHT22;9239;50.932;3.142;2023-04-06T12:55:24;10.80;99.90
18229;DHT22;9239;50.932;3.142;2023-04-06T12:57:52;10.80;99.90
18229;DHT22;9239;50.932;3.142;2023-04-06T13:00:21;10.90;99.90
18229;DHT22;9239;50.932;3.142;2023-04-06T13:02:48;11.00;99.90
18229;DHT22;9239;50.932;3.142;2023-04-06T13:05:15;11.00;99.90
18229;DHT22;9239;50.932;3.142;2023-04-06T13:07:44;11.00;99.90
18229;DHT22;9239;50.932;3.142;2023-04-06T13:10:12;11.10;99.90
18229;DHT22;9239;50.932;3.142;2023-04-06T13:12:39;11.00;99.90
18229;DHT22;9239;50.932;3.142;2023-04-06T13:15:07;10.90;99.90
18229;DHT22;9239;50.932;3.142;2023-04-06T13:17:35;11.00;99.90
18229;DHT22;9239;50.932;3.142;2023-04-06T13:20:02;11.00;99.90
18229;DHT22;9239;50.932;3.142;2023-04-06T13:22:31;11.00;99.90
18229;DHT22;9239;50.932;3.142;2023-04-06T13:24:58;11.10;99.90
18229;DHT22;9239;50.932;3.142;2023-04-06T13:27:25;11.20;99.90
18229;DHT22;9239;50.932;3.142;2023-04-06T13:29:52;11.30;99.90
18229;DHT22;9239;50.932;3.142;2023-04-06T13:32:20;11.30;99.90
18229;DHT22;9239;50.932;3.142;2023-04-06T13:34:48;11.30;99.90
18229;DHT22;9239;50.932;3.142;2023-04-06T13:37:15;11.40;99.90
18229;DHT22;9239;50.932;3.142;2023-04-06T13:39:42;11.40;99.90
18229;DHT22;9239;50.932;3.142;2023-04-06T13:42:09;11.40;99.90
18229;DHT22;9239;50.932;3.142;2023-04-06T13:44:36;11.40;99.90
18229;DHT22;9239;50.932;3.142;2023-04-06T13:47:03;11.40;99.90
18229;DHT22;9239;50.932;3.142;2023-04-06T13:49:31;11.40;99.90
18229;DHT22;9239;50.932;3.142;2023-04-06T13:51:59;11.50;99.90
18229;DHT22;9239;50.932;3.142;2023-04-06T13:54:26;11.50;99.90
18229;DHT22;9239;50.932;3.142;2023-04-06T13:56:54;11.60;99.90
18229;DHT22;9239;50.932;3.142;2023-04-06T13:59:22;11.60;99.90
18229;DHT22;9239;50.932;3.142;2023-04-06T14:01:48;11.60;99.90
18229;DHT22;9239;50.932;3.142;2023-04-06T14:04:15;11.70;99.90
18229;DHT22;9239;50.932;3.142;2023-04-06T14:06:44;11.70;99.90
18229;DHT22;9239;50.932;3.142;2023-04-06T14:09:12;11.80;99.90
18229;DHT22;9239;50.932;3.142;2023-04-06T14:11:39;11.80;99.90
18229;DHT22;9239;50.932;3.142;2023-04-06T14:14:06;11.80;99.90
18229;DHT22;9239;50.932;3.142;2023-04-06T14:16:33;11.90;99.90
18229;DHT22;9239;50.932;3.142;2023-04-06T14:19:00;11.90;99.90
18229;DHT22;9239;50.932;3.142;2023-04-06T14:21:27;12.00;99.90
18229;DHT22;9239;50.932;3.142;2023-04-06T14:23:54;12.00;99.90
18229;DHT22;9239;50.932;3.142;2023-04-06T14:26:23;12.00;99.90
18229;DHT22;9239;50.932;3.142;2023-04-06T14:28:50;12.00;99.90
18229;DHT22;9239;50.932;3.142;2023-04-06T14:31:17;12.10;99.90
18229;DHT22;9239;50.932;3.142;2023-04-06T14:33:44;12.00;99.90
18229;DHT22;9239;50.932;3.142;2023-04-06T14:36:11;12.00;99.90
18229;DHT22;9239;50.932;3.142;2023-04-06T14:38:38;12.00;99.90
18229;DHT22;9239;50.932;3.142;2023-04-06T14:41:06;12.00;99.90
18229;DHT22;9239;50.932;3.142;2023-04-06T14:43:35;11.90;99.90
18229;DHT22;9239;50.932;3.142;2023-04-06T14:46:02;12.00;99.90
18229;DHT22;9239;50.932;3.142;2023-04-06T14:48:29;12.00;99.90
18229;DHT22;9239;50.932;3.142;2023-04-06T14:50:56;12.00;99.90
18229;DHT22;9239;50.932;3.142;2023-04-06T14:53:23;12.00;99.90
18229;DHT22;9239;50.932;3.142;2023-04-06T14:55:50;12.00;99.90
18229;DHT22;9239;50.932;3.142;2023-04-06T14:58:17;11.90;99.90
18229;DHT22;9239;50.932;3.142;2023-04-06T15:00:46;11.90;99.90
18229;DHT22;9239;50.932;3.142;2023-04-06T15:03:13;11.90;99.90
18229;DHT22;9239;50.932;3.142;2023-04-06T15:05:40;11.90;99.90
18229;DHT22;9239;50.932;3.142;2023-04-06T15:08:07;12.00;99.90
18229;DHT22;9239;50.932;3.142;2023-04-06T15:10:35;12.30;99.90
18229;DHT22;9239;50.932;3.142;2023-04-06T15:13:02;12.50;99.90
18229;DHT22;9239;50.932;3.142;2023-04-06T15:15:29;12.70;99.90
18229;DHT22;9239;50.932;3.142;2023-04-06T15:17:58;12.80;99.90
18229;DHT22;9239;50.932;3.142;2023-04-06T15:20:27;12.90;99.90
18229;DHT22;9239;50.932;3.142;2023-04-06T15:22:54;12.90;99.90
18229;DHT22;9239;50.932;3.142;2023-04-06T15:25:21;12.90;99.90
18229;DHT22;9239;50.932;3.142;2023-04-06T15:27:48;12.80;99.90
18229;DHT22;9239;50.932;3.142;2023-04-06T15:30:15;12.80;99.90
18229;DHT22;9239;50.932;3.142;2023-04-06T15:32:52;12.80;99.90
18229;DHT22;9239;50.932;3.142;2023-04-06T15:35:20;12.70;99.90
18229;DHT22;9239;50.932;3.142;2023-04-06T15:37:47;12.60;99.90
18229;DHT22;9239;50.932;3.142;2023-04-06T15:40:14;12.60;99.90
18229;DHT22;9239;50.932;3.142;2023-04-06T15:42:42;12.60;99.90
18229;DHT22;9239;50.932;3.142;2023-04-06T15:45:09;12.50;99.90
18229;DHT22;9239;50.932;3.142;2023-04-06T15:47:36;12.40;99.90
18229;DHT22;9239;50.932;3.142;2023-04-06T15:50:04;12.40;99.90
18229;DHT22;9239;50.932;3.142;2023-04-06T15:52:33;12.30;99.90
18229;DHT22;9239;50.932;3.142;2023-04-06T15:55:01;12.30;99.90
18229;DHT22;9239;50.932;3.142;2023-04-06T15:57:28;12.30;99.90
18229;DHT22;9239;50.932;3.142;2023-04-06T15:59:55;12.40;99.90